Brainerd, MN

10:18 PM CDT on August 30, 2015 (GMT -0500)
Brainerd-Crow Wing County Regional | | Change Station
CLOSE
Current Station
Airport
Location: Brainerd,
Elevation: 1227 ft
Nearby Weather Stations

Elev 1227 ft 46.40 °N, 94.13 °W | Updated 25 minutes ago

Clear
Clear
69 °F
Feels Like 69 °F
N
9
Wind Variable Wind from South

Today
High -- | Low -- °F
--% Chance of Precip.
Yesterday
High -- | Low -- °F
Precip. -- in
6:34 AM 7:59 PM
Full, 97% visible
Pressure 29.87 in
Visibility 10.0 miles
Clouds Clear
Dew Point 65 °F
Humidity 87%
Rainfall 0.00 in
Snow Depth Not available.
UV 0 out of 12
Pollen 10.20 out of 12
Air Quality Not available.
Flu Activity Not available.
METAR KBRD 310253Z AUTO 18008KT 10SM CLR 21/18 A2987 RMK AO2 SLP113 T02060183 53004
Pressure 29.87 in
Visibility 10.0 miles
Clouds Clear
Dew Point 65 °F
Humidity 87%
Rainfall 0.00 in
Snow Depth Not available.
UV 0 out of 12
Pollen 10.20 out of 12
Air Quality Not available.
Flu Activity Not available.
METAR KBRD 310253Z AUTO 18008KT 10SM CLR 21/18 A2987 RMK AO2 SLP113 T02060183 53004

10-Day Weather Forecast

×

Almanac

Astronomy

Aug. 30, 2015 Rise Set
Actual Time
Civil Twilight
Nautical Twilight
Astronomical Twilight
Moon
Length of Visible Light
Length of Day
Tomorrow will be .
, % of the Moon is Illuminated

Today's Extremes

State Highs State Lows

Community

WunderPhotos

Upload Photos

1,851,167 photos uploaded!

WunderBlogs® & News

Nearby

Air Quality

  Air Quality AQ Index Pollutant
Not available.

Snow Depth

Station Depth Elevation

Earthquake Activity

City Distance Mag. Time & Date
Minimum magnitude displayed is 2.5.

Coastal Water Temperatures

Place Temperature

Stations

Nearby Weather Stations

Station Location Temp. Windchill Dew Point Humidity Wind Precip. Elev Updated Type